Flight Track Log - Related Links

Times and Time Zones

All times are in EDT time to prevent confusion due to time zone crossing. See the UAL4380 flight status page for this flight to view local times or setup timezone preferences in your user account.

Time Position Orientation Groundspeed Altitude Reporting Facility
EDT Latitude Longitude Course Direction KTS MPH feet Rate Location/Type
Fri 06:37:25 AM 26.1547 -98.2225 22° Northeast 145 167 1,100  Level Houston Center
Fri 06:38:31 AM 26.1794 -98.1772 59° Northeast 224 258 3,000 1,176 Climbing Houston Center
Fri 06:39:07 AM 26.2211 -98.1758 North 234 269 3,100 295 Climbing Houston Center
Fri 06:39:32 AM 26.2478 -98.1683 14° North 249 287 3,300 1,800 Climbing Houston Center
Fri 06:40:00 AM 26.4269 -98.1116 24° Northeast  Level FlightAware Approximate
Fri 06:40:07 AM 26.2883 -98.1525 19° North 253 291 4,900  Level Houston Center
Fri 06:40:33 AM 26.3144 -98.1411 21° North 258 297 6,100 2,500 Climbing Houston Center
Fri 06:41:00 AM 26.4913 -98.0794 24° Northeast  Level FlightAware Approximate
Fri 06:41:07 AM 26.3583 -98.1214 22° Northeast 267 307 7,400  Level Houston Center
Fri 06:41:33 AM 26.3867 -98.1083 22° Northeast 275 316 8,800 3,344 Climbing Houston Center
Fri 06:42:00 AM 26.5558 -98.0474 22° Northeast  Level FlightAware Approximate
Fri 06:42:08 AM 26.4319 -98.0892 21° North 281 323 10,800  Level Houston Center
Fri 06:43:08 AM 26.5050 -98.0592 20° North 279 321 12,700 1,750 Climbing Houston Center
Fri 06:44:08 AM 26.5858 -98.0239 21° North 308 354 14,300 1,587 Climbing Houston Center
Fri 06:45:09 AM 26.6736 -97.9853 21° North 335 386 15,900 1,537 Climbing Houston Center
Fri 06:46:09 AM 26.7625 -97.9292 29° Northeast 361 415 17,400 1,500 Climbing Houston Center
Fri 06:47:09 AM 26.8539 -97.8742 28° Northeast 372 428 18,900 1,388 Climbing Houston Center
Fri 06:48:10 AM 26.9461 -97.8169 29° Northeast 381 438 20,200 1,240 Climbing Houston Center
Fri 06:49:10 AM 27.0419 -97.7564 29° Northeast 393 452 21,400 1,190 Climbing Houston Center
Fri 06:50:11 AM 27.1344 -97.7017 28° Northeast 429 494 22,600 1,488 Climbing Houston Center
Fri 06:51:11 AM 27.2458 -97.6306 30° Northeast 406 467 24,400 1,200 Climbing Houston Center
Fri 06:52:11 AM 27.3478 -97.5661 29° Northeast 419 482 25,000 298 Climbing Houston Center
Fri 06:53:12 AM 27.4592 -97.4972 29° Northeast 451 519 25,000  Level Houston Center
Fri 06:54:12 AM 27.5753 -97.4250 29° Northeast 473 544 25,000  Level Houston Center
Fri 06:55:13 AM 27.6944 -97.3503 29° Northeast 485 558 25,000  Level Houston Center
Fri 06:56:13 AM 27.8128 -97.2761 29° Northeast 488 562 25,000  Level Houston Center
Fri 06:57:14 AM 27.9322 -97.2019 29° Northeast 488 562 25,000  Level Houston Center
Fri 06:58:14 AM 28.0578 -97.1219 29° Northeast 486 559 25,000  Level Houston Center
Fri 06:59:15 AM 28.1756 -97.0469 29° Northeast 486 559 25,000  Level Houston Center
Fri 07:00:15 AM 28.2944 -96.9742 28° Northeast 485 558 25,000  Level Houston Center
Fri 07:01:16 AM 28.4122 -96.8983 30° Northeast 487 560 25,000  Level Houston Center
Fri 07:02:16 AM 28.5289 -96.8225 30° Northeast 485 558 25,000  Level Houston Center
Fri 07:03:17 AM 28.6472 -96.7489 29° Northeast 485 558 25,000  Level Houston Center
Fri 07:04:17 AM 28.7636 -96.6733 30° Northeast 484 557 25,000 -446 Level Houston Center
Fri 07:05:18 AM 28.8794 -96.5953 31° Northeast 485 558 24,100 -1,353 Descending Houston Center
Fri 07:05:59 AM 28.9439 -96.5439 35° Northeast 485 558 22,700 -1,900 Descending Houston Center
Fri 07:06:18 AM 28.9856 -96.5089 36° Northeast 473 544 22,200 -1,946 Descending Houston Center
Fri 07:06:36 AM 29.0222 -96.4781 36° Northeast 462 532 21,500 -1,967 Descending Houston Center
Fri 07:07:19 AM 29.0869 -96.4272 34° Northeast 453 521 20,200 -2,100 Descending Houston Center
Fri 07:07:36 AM 29.1264 -96.3950 36° Northeast 444 511 19,400 -1,900 Descending Houston Center
Fri 07:08:19 AM 29.1856 -96.3475 35° Northeast 441 507 18,300 -1,967 Descending Houston Center
Fri 07:08:37 AM 29.2286 -96.3122 36° Northeast 430 495 17,400 -1,967 Descending Houston Center
Fri 07:09:20 AM 29.2794 -96.2697 36° Northeast 425 489 16,300 -1,881 Descending Houston Center
Fri 07:09:44 AM 29.3306 -96.2292 35° Northeast 415 478 15,300 -1,869 Descending Houston Center
Fri 07:10:21 AM 29.3708 -96.1947 37° Northeast 409 471 14,400 -1,612 Descending Houston Center
Fri 07:10:51 AM 29.4344 -96.1431 35° Northeast 396 456 13,500 -1,300 Descending Houston Center
Fri 07:11:21 AM 29.4606 -96.1219 35° Northeast 400 460 13,100 -1,418 Descending Houston Center
Fri 07:11:46 AM 29.5111 -96.0817 35° Northeast 395 455 12,200 -1,770 Descending Houston Center
Fri 07:12:22 AM 29.5636 -96.0372 36° Northeast 381 438 11,300 -1,475 Descending Houston Center
Fri 07:12:47 AM 29.5969 -96.0097 36° Northeast 345 397 10,700 -1,082 Descending Houston Center
Fri 07:13:23 AM 29.6367 -95.9764 36° Northeast 336 387 10,200 -689 Descending Houston Center
Fri 07:13:48 AM 29.6656 -95.9536 34° Northeast 296 341 10,000 -1,200 Descending Houston Center
Fri 07:14:23 AM 29.7003 -95.9250 36° Northeast 295 339 9,000 -1,700 Descending Houston Center
Fri 07:14:48 AM 29.7264 -95.9036 35° Northeast 259 298 8,300 -1,672 Descending Houston Center
Fri 07:15:24 AM 29.7544 -95.8669 49° Northeast 280 322 7,300 -1,770 Descending Houston Center
Fri 07:15:49 AM 29.7769 -95.8350 51° Northeast 280 322 6,500 -1,770 Descending Houston Center
Fri 07:16:25 AM 29.8058 -95.7975 48° Northeast 290 334 5,500 -1,770 Descending Houston Center
Fri 07:16:50 AM 29.8278 -95.7667 51° Northeast 281 323 4,700 -1,475 Descending Houston Center
Fri 07:17:26 AM 29.8556 -95.7292 49° Northeast 296 341 4,000 -1,082 Descending Houston Center
Fri 07:17:51 AM 29.8744 -95.7011 52° Northeast 265 305 3,600 -800 Descending Houston Center
Fri 07:18:26 AM 29.9006 -95.6683 47° Northeast 253 291 3,200 -590 Descending Houston Center
Fri 07:18:52 AM 29.9208 -95.6353 55° Northeast 242 278 3,000 -197 Descending Houston Center
Fri 07:19:27 AM 29.9447 -95.6056 47° Northeast 255 293 3,000  Level Houston Center
Fri 07:19:52 AM 29.9658 -95.5744 52° Northeast 252 290 3,000  Level Houston Center
Fri 07:20:28 AM 29.9889 -95.5447 48° Northeast 250 288 3,000 -197 Level Houston Center
Fri 07:20:53 AM 29.9914 -95.5089 85° East 227 261 2,800 -480 Descending Houston Center

Login

Don't have an account? Register now (free) for customized features, flight alerts, and more!